Time;durP1;ratioP1;P1;durP2;ratioP2;P2;SDS_P1;SDS_P2;PMS_P1;PMS_P2;Temp;Humidity;BMP_temperature;BMP_pressure;BME280_temperature;BME280_humidity;BME280_pressure;Samples;Min_cycle;Max_cycle;Signal;HPM_P1;HPM_P2
2022/08/02 00:00:15;;;;;;;3.45;1.10;;;;;;;15.88;98.02;101861.19;5092502;28;20055;-35
2022/08/02 00:02:44;;;;;;;3.28;1.00;;;;;;;15.88;98.21;101852.75;5092050;28;20044;-32
2022/08/02 00:05:13;;;;;;;3.72;1.27;;;;;;;15.86;98.97;101850.25;5092100;28;20051;-31
2022/08/02 00:07:41;;;;;;;4.70;1.40;;;;;;;15.84;99.20;101849.72;5092097;28;20196;-36
2022/08/02 00:10:11;;;;;;;4.95;1.40;;;;;;;15.84;99.80;101849.72;5078940;28;20044;-32
2022/08/02 00:12:39;;;;;;;4.10;1.17;;;;;;;15.83;99.94;101850.88;5091575;28;20048;-31
2022/08/02 00:15:10;;;;;;;3.45;0.90;;;;;;;15.85;100.00;101852.22;5091964;28;20052;-31
2022/08/02 00:17:43;;;;;;;5.10;1.20;;;;;;;15.83;100.00;101845.22;5091729;28;20052;-34
2022/08/02 00:20:13;;;;;;;4.20;1.20;;;;;;;15.82;100.00;101847.22;5091766;28;20069;-30
2022/08/02 00:22:41;;;;;;;5.38;1.38;;;;;;;15.83;100.00;101834.81;5091800;28;20420;-34
2022/08/02 00:25:09;;;;;;;4.35;1.58;;;;;;;15.83;100.00;101839.59;5091658;28;20044;-31
2022/08/02 00:27:37;;;;;;;3.15;1.10;;;;;;;15.83;100.00;101845.22;5091559;28;20044;-34
2022/08/02 00:30:06;;;;;;;5.97;1.38;;;;;;;15.84;100.00;101835.66;5092288;28;20048;-29
2022/08/02 00:32:35;;;;;;;5.60;1.27;;;;;;;15.83;100.00;101829.19;5091606;28;20044;-32
2022/08/02 00:35:03;;;;;;;4.40;1.15;;;;;;;15.82;100.00;101832.31;5091702;28;20052;-35
2022/08/02 00:37:30;;;;;;;5.20;1.38;;;;;;;15.81;100.00;101825.84;5091758;28;20040;-34
2022/08/02 00:39:58;;;;;;;3.75;1.20;;;;;;;15.82;100.00;101832.31;5091467;28;20131;-31
2022/08/02 00:42:26;;;;;;;8.05;2.10;;;;;;;15.81;100.00;101830.63;5090103;28;20401;-31
2022/08/02 00:44:53;;;;;;;5.25;1.45;;;;;;;15.80;100.00;101814.91;5091699;28;20044;-30
2022/08/02 00:47:21;;;;;;;5.78;1.40;;;;;;;15.80;100.00;101817.72;5091008;28;20051;-32
2022/08/02 00:49:50;;;;;;;4.97;1.30;;;;;;;15.79;100.00;101814.06;5091564;28;20040;-32
2022/08/02 00:52:18;;;;;;;3.85;1.20;;;;;;;15.79;100.00;101801.97;5091718;28;20074;-37
2022/08/02 00:54:46;;;;;;;7.30;1.80;;;;;;;15.78;100.00;101800.31;5091120;28;20044;-31
2022/08/02 00:57:14;;;;;;;3.97;1.60;;;;;;;15.76;100.00;101800.63;5091656;28;20518;-32
2022/08/02 00:59:41;;;;;;;4.55;1.65;;;;;;;15.76;100.00;101789.38;5091381;28;20485;-34
2022/08/02 01:02:09;;;;;;;5.38;1.40;;;;;;;15.75;100.00;101792.50;5091098;28;20067;-36
2022/08/02 01:04:37;;;;;;;6.18;1.40;;;;;;;15.76;100.00;101786.56;5091217;28;20089;-33
2022/08/02 01:07:07;;;;;;;3.65;1.30;;;;;;;15.77;100.00;101790.22;5091525;28;20481;-31
2022/08/02 01:09:41;;;;;;;5.75;1.60;;;;;;;15.76;100.00;101797.81;5091305;28;20044;-30
2022/08/02 01:12:10;;;;;;;3.58;1.50;;;;;;;15.78;100.00;101803.97;5091627;28;20044;-30
2022/08/02 01:14:39;;;;;;;4.22;1.70;;;;;;;15.81;100.00;101799.69;5090813;28;20109;-36
2022/08/02 01:17:16;;;;;;;4.22;1.35;;;;;;;15.85;100.00;101798.75;5091333;28;20052;-32
2022/08/02 01:19:53;;;;;;;4.25;1.20;;;;;;;15.89;100.00;101798.97;5091495;28;20047;-37
2022/08/02 01:22:38;;;;;;;3.47;1.23;;;;;;;15.91;100.00;101802.31;5090965;28;20493;-30
2022/08/02 01:25:42;;;;;;;5.68;1.40;;;;;;;15.92;100.00;101789.91;5091190;28;20488;-30
2022/08/02 01:28:29;;;;;;;3.00;1.00;;;;;;;15.95;100.00;101792.09;5093990;28;20077;-32
2022/08/02 01:31:01;;;;;;;4.80;1.45;;;;;;;15.95;100.00;101796.88;5095447;28;20048;-32
2022/08/02 01:33:35;;;;;;;4.53;1.20;;;;;;;15.96;100.00;101790.94;5095380;28;20048;-30
2022/08/02 01:36:04;;;;;;;3.65;1.40;;;;;;;15.95;100.00;101797.72;5094327;28;20650;-39
2022/08/02 01:38:35;;;;;;;6.63;2.10;;;;;;;15.93;100.00;101788.75;5095322;28;20052;-37
2022/08/02 01:41:05;;;;;;;5.03;1.50;;;;;;;15.91;100.00;101791.03;5095124;28;20126;-30
2022/08/02 01:43:35;;;;;;;3.38;1.50;;;;;;;15.90;100.00;101788.53;5094503;28;20511;-36
2022/08/02 01:46:04;;;;;;;4.15;1.33;;;;;;;15.88;100.00;101782.38;5094508;28;20044;-32
2022/08/02 01:48:34;;;;;;;3.67;1.55;;;;;;;15.88;100.00;101779.56;5095225;28;20044;-41
2022/08/02 01:51:04;;;;;;;4.88;1.52;;;;;;;15.88;100.00;101780.41;5094803;28;20485;-32
2022/08/02 01:53:33;;;;;;;3.67;1.20;;;;;;;15.88;100.00;101780.41;5095285;28;20421;-31
2022/08/02 01:56:02;;;;;;;5.63;1.30;;;;;;;15.87;100.00;101773.09;5094801;28;20097;-32
2022/08/02 01:58:34;;;;;;;3.92;1.38;;;;;;;15.86;100.00;101765.81;5094353;28;20055;-32
2022/08/02 02:01:06;;;;;;;4.83;1.43;;;;;;;15.83;100.00;101766.44;5094575;28;20326;-35
2022/08/02 02:03:34;;;;;;;;;;;;;;;15.78;100.00;101767.38;5094914;28;20512;-32
2022/08/02 02:06:11;;;;;;;3.30;1.30;;;;;;;15.74;100.00;101763.53;5094285;28;19923;-31
2022/08/02 02:08:41;;;;;;;6.30;1.70;;;;;;;15.75;100.00;101770.00;5093888;28;20056;-30
2022/08/02 02:11:09;;;;;;;5.25;1.90;;;;;;;15.75;100.00;101764.34;5093964;28;20044;-32
2022/08/02 02:13:58;;;;;;;4.35;1.30;;;;;;;15.71;100.00;101774.56;5094364;28;20043;-29
2022/08/02 02:16:29;;;;;;;3.60;1.27;;;;;;;15.72;100.00;101764.97;5094662;28;20051;-31
2022/08/02 02:18:59;;;;;;;3.72;1.27;;;;;;;15.71;100.00;101766.13;5093911;28;20054;-32
2022/08/02 02:21:27;;;;;;;4.38;1.73;;;;;;;15.70;100.00;101756.00;5094197;28;20048;-34
2022/08/02 02:23:58;;;;;;;4.20;1.55;;;;;;;15.68;100.00;101763.94;5094477;28;20106;-36
2022/08/02 02:26:29;;;;;;;4.15;1.40;;;;;;;15.68;100.00;101747.88;5093529;28;20143;-34
2022/08/02 02:29:01;;;;;;;6.15;1.73;;;;;;;15.67;100.00;101753.81;5094344;28;20074;-32
2022/08/02 02:31:34;;;;;;;3.35;1.20;;;;;;;15.64;100.00;101749.66;5093938;28;20055;-30
2022/08/02 02:34:05;;;;;;;5.80;1.80;;;;;;;15.61;100.00;101738.16;5094178;28;20044;-30
2022/08/02 02:36:34;;;;;;;2.90;1.50;;;;;;;15.60;100.00;101747.75;5093896;28;20040;-33
2022/08/02 02:39:05;;;;;;;4.75;1.50;;;;;;;15.59;100.00;101741.28;5093000;28;20048;-30
2022/08/02 02:41:42;;;;;;;6.55;1.55;;;;;;;15.58;100.00;101741.63;5093627;28;20036;-32
2022/08/02 02:44:14;;;;;;;3.25;1.20;;;;;;;15.58;100.00;101736.00;5093986;28;20131;-40
2022/08/02 02:46:44;;;;;;;4.22;1.40;;;;;;;15.57;100.00;101735.19;5093037;28;20162;-31
2022/08/02 02:49:14;;;;;;;4.20;1.40;;;;;;;15.55;100.00;101726.19;5093632;28;20043;-30
2022/08/02 02:51:44;;;;;;;4.50;1.48;;;;;;;15.55;100.00;101740.25;5094083;28;20055;-32
2022/08/02 02:54:12;;;;;;;4.47;1.70;;;;;;;15.56;100.00;101729.84;5092644;28;20051;-34
2022/08/02 02:57:01;;;;;;;4.30;1.30;;;;;;;15.54;100.00;101735.75;5091662;28;20036;-32
2022/08/02 02:59:30;;;;;;;4.40;1.40;;;;;;;15.55;100.00;101725.34;5080438;28;20105;-30
2022/08/02 03:02:00;;;;;;;4.10;1.30;;;;;;;15.55;100.00;101725.34;5090835;28;20082;-30
2022/08/02 03:04:28;;;;;;;5.00;1.60;;;;;;;15.57;100.00;101728.72;5091357;28;20044;-36
2022/08/02 03:07:16;;;;;;;5.40;1.38;;;;;;;15.56;100.00;101721.41;5091780;28;20044;-33
2022/08/02 03:09:44;;;;;;;5.45;1.67;;;;;;;15.59;100.00;101723.63;5091877;28;20165;-37
2022/08/02 03:12:22;;;;;;;5.32;1.67;;;;;;;15.58;100.00;101719.13;5093013;28;20051;-29
2022/08/02 03:14:58;;;;;;;5.18;1.60;;;;;;;15.61;100.00;101713.69;5093614;28;20040;-30
2022/08/02 03:17:37;;;;;;;3.47;1.30;;;;;;;15.66;100.00;101715.56;5093128;28;20590;-35
2022/08/02 03:20:09;;;;;;;4.93;1.42;;;;;;;15.65;100.00;101711.09;5092654;28;20050;-31
2022/08/02 03:22:37;;;;;;;6.45;1.88;;;;;;;15.66;100.00;101716.41;5092609;28;20149;-30
2022/08/02 03:25:06;;;;;;;4.65;1.55;;;;;;;15.71;100.00;101709.84;5092943;28;20043;-31
2022/08/02 03:27:33;;;;;;;4.90;1.27;;;;;;;15.74;100.00;101706.41;5092962;28;20056;-35
2022/08/02 03:30:01;;;;;;;5.28;1.80;;;;;;;15.76;100.00;101704.13;5092357;28;20040;-32
2022/08/02 03:32:31;;;;;;;4.45;1.30;;;;;;;15.75;100.00;101697.66;5093365;28;20052;-35
2022/08/02 03:34:58;;;;;;;5.85;1.63;;;;;;;15.77;100.00;101697.34;5092162;28;20493;-32
2022/08/02 03:37:28;;;;;;;5.85;1.45;;;;;;;15.78;100.00;101682.13;5092765;28;20051;-29
2022/08/02 03:39:57;;;;;;;3.50;1.33;;;;;;;15.77;100.00;101686.09;5092804;28;20048;-31
2022/08/02 03:42:27;;;;;;;4.68;1.60;;;;;;;15.77;100.00;101677.66;5092610;28;20036;-30
2022/08/02 03:44:56;;;;;;;6.43;1.48;;;;;;;15.76;100.00;101671.19;5092545;28;20066;-34
2022/08/02 03:47:24;;;;;;;5.72;1.27;;;;;;;15.77;100.00;101674.81;5072714;28;20067;-36
2022/08/02 03:49:54;;;;;;;6.15;1.48;;;;;;;15.74;100.00;101667.84;5072204;28;20123;-37
2022/08/02 03:52:23;;;;;;;4.60;1.30;;;;;;;15.72;100.00;101674.94;5090358;28;20048;-31
2022/08/02 03:54:51;;;;;;;4.90;1.42;;;;;;;15.71;100.00;101674.09;5092437;28;20048;-31
2022/08/02 03:57:19;;;;;;;4.25;1.27;;;;;;;15.69;100.00;101673.56;5092038;28;20063;-34
2022/08/02 03:59:47;;;;;;;6.53;1.65;;;;;;;15.67;100.00;101672.22;5092070;28;20036;-35
2022/08/02 04:02:15;;;;;;;7.55;1.95;;;;;;;15.66;100.00;101667.75;5092571;28;20052;-35
2022/08/02 04:04:42;;;;;;;5.03;1.50;;;;;;;15.67;100.00;101669.41;5091952;28;20051;-32
2022/08/02 04:07:11;;;;;;;6.70;2.15;;;;;;;15.64;100.00;101672.84;5092379;28;20056;-33
2022/08/02 04:09:39;;;;;;;4.35;1.25;;;;;;;15.65;100.00;101668.88;5092287;28;20109;-33
2022/08/02 04:12:07;;;;;;;4.05;1.63;;;;;;;15.65;100.00;101668.88;5091711;28;20046;-31
2022/08/02 04:14:36;;;;;;;6.45;1.98;;;;;;;15.63;100.00;101662.72;5092182;28;20040;-30
2022/08/02 04:17:07;;;;;;;5.30;1.50;;;;;;;15.66;100.00;101659.28;5080974;28;20489;-30
2022/08/02 04:19:39;;;;;;;6.72;1.60;;;;;;;15.63;100.00;101651.47;5092226;28;20075;-35
2022/08/02 04:22:13;;;;;;;5.22;1.58;;;;;;;15.63;100.00;101659.91;5092292;28;20048;-31
2022/08/02 04:24:49;;;;;;;5.30;1.30;;;;;;;15.64;100.00;101665.22;5091548;28;20521;-34
2022/08/02 04:27:19;;;;;;;5.57;1.83;;;;;;;15.64;100.00;101661.59;5091174;28;20060;-32
2022/08/02 04:30:08;;;;;;;5.03;1.50;;;;;;;15.64;100.00;101665.22;5091982;28;20047;-37
2022/08/02 04:32:38;;;;;;;4.65;1.55;;;;;;;15.67;100.00;101661.78;5080637;28;20066;-31
2022/08/02 04:35:07;;;;;;;3.35;1.00;;;;;;;15.68;100.00;101671.91;5091622;28;20044;-32
2022/08/02 04:37:47;;;;;;;4.32;1.10;;;;;;;15.67;100.00;101675.03;5081407;28;20059;-31
2022/08/02 04:40:36;;;;;;;4.18;1.42;;;;;;;15.68;100.00;101674.72;5091105;28;20044;-30
2022/08/02 04:43:04;;;;;;;5.32;1.40;;;;;;;15.66;100.00;101679.81;5092120;28;20070;-31
2022/08/02 04:45:32;;;;;;;3.35;1.25;;;;;;;15.66;100.00;101670.56;5091165;28;20052;-31
2022/08/02 04:48:00;;;;;;;6.07;1.27;;;;;;;15.65;100.00;101680.13;5090010;28;20416;-38
2022/08/02 04:50:32;;;;;;;5.38;1.92;;;;;;;15.64;100.00;101684.09;5091851;28;20048;-31
2022/08/02 04:53:00;;;;;;;3.80;1.30;;;;;;;15.64;100.00;101681.28;5091009;28;20416;-31
2022/08/02 04:55:28;;;;;;;4.65;1.20;;;;;;;15.64;100.00;101684.09;5091610;28;20588;-32
2022/08/02 04:57:58;;;;;;;4.82;1.50;;;;;;;15.66;100.00;101676.19;5091675;28;20489;-37
2022/08/02 05:00:33;;;;;;;3.33;1.30;;;;;;;15.62;100.00;101675.97;5091208;28;20051;-33
2022/08/02 05:03:01;;;;;;;3.33;1.27;;;;;;;15.64;100.00;101670.03;5094582;28;20068;-34
2022/08/02 05:05:29;;;;;;;4.55;1.40;;;;;;;15.68;100.00;101671.91;5098400;28;20067;-34
2022/08/02 05:07:57;;;;;;;2.97;1.20;;;;;;;15.72;100.00;101663.69;5097607;28;20485;-34
2022/08/02 05:10:25;;;;;;;3.25;1.20;;;;;;;15.75;100.00;101663.06;5096965;28;20420;-33
2022/08/02 05:12:53;;;;;;;3.85;1.08;;;;;;;15.80;100.00;101666.56;5097925;28;20052;-35
2022/08/02 05:15:22;;;;;;;5.72;1.75;;;;;;;15.88;100.00;101667.81;5097652;28;20060;-33
2022/08/02 05:17:50;;;;;;;3.53;1.45;;;;;;;15.96;100.00;101669.06;5095354;28;20401;-30
2022/08/02 05:20:19;;;;;;;4.20;1.33;;;;;;;16.03;100.00;101670.28;5097347;28;20060;-29
2022/08/02 05:22:46;;;;;;;3.53;1.48;;;;;;;16.12;100.00;101659.13;5096506;28;20040;-31
2022/08/02 05:25:15;;;;;;;4.57;1.50;;;;;;;16.18;100.00;101669.94;5097247;28;20048;-34
2022/08/02 05:27:42;;;;;;;2.92;1.13;;;;;;;16.28;100.00;101668.03;5094785;28;20048;-32
2022/08/02 05:30:11;;;;;;;5.72;1.40;;;;;;;16.37;100.00;101668.94;5097057;28;20052;-30
2022/08/02 05:32:49;;;;;;;3.25;1.20;;;;;;;16.48;100.00;101668.38;5096962;28;20052;-35
2022/08/02 05:35:18;;;;;;;3.63;1.27;;;;;;;16.57;99.50;101667.63;5096680;28;20055;-30
2022/08/02 05:37:46;;;;;;;1.90;1.00;;;;;;;16.67;98.91;101664.56;5096576;28;20139;-34
2022/08/02 05:40:16;;;;;;;3.50;1.38;;;;;;;16.74;97.85;101668.59;5097045;28;20106;-35
2022/08/02 05:42:52;;;;;;;2.97;1.00;;;;;;;16.80;96.65;101661.66;5096468;28;20047;-32
2022/08/02 05:45:20;;;;;;;5.55;1.65;;;;;;;16.88;95.73;101662.88;5096894;28;20591;-33
2022/08/02 05:47:50;;;;;;;4.30;1.20;;;;;;;16.97;95.21;101654.47;5096647;28;20062;-35
2022/08/02 05:50:18;;;;;;;3.78;1.40;;;;;;;17.04;94.57;101661.31;5096351;28;20051;-39
2022/08/02 05:52:51;;;;;;;3.88;1.40;;;;;;;17.10;93.53;101659.19;5096830;28;20516;-29
2022/08/02 05:55:27;;;;;;;4.13;1.40;;;;;;;17.18;92.80;101661.22;5097321;28;20047;-32
2022/08/02 05:58:02;;;;;;;3.78;1.50;;;;;;;17.22;91.49;101656.59;5096196;28;20474;-32
2022/08/02 06:00:34;;;;;;;6.55;1.67;;;;;;;17.28;90.60;101648.81;5085734;28;20047;-33
2022/08/02 06:03:21;;;;;;;3.15;1.10;;;;;;;17.34;89.40;101642.72;5096231;28;20066;-30
2022/08/02 06:05:56;;;;;;;4.53;1.00;;;;;;;17.43;89.08;101652.03;5095996;28;20493;-36
2022/08/02 06:08:30;;;;;;;4.40;1.17;;;;;;;17.54;88.22;101650.59;5096835;28;20105;-32
2022/08/02 06:11:01;;;;;;;3.95;1.10;;;;;;;17.65;87.60;101641.84;5089788;28;20420;-29
2022/08/02 06:13:29;;;;;;;5.97;1.42;;;;;;;17.75;87.00;101642.38;5096540;28;20493;-30
2022/08/02 06:15:58;;;;;;;3.22;1.10;;;;;;;17.83;86.00;101635.06;5094493;28;20044;-28
2022/08/02 06:18:28;;;;;;;4.03;1.40;;;;;;;17.95;85.69;101628.78;5093673;28;20139;-30
2022/08/02 06:20:58;;;;;;;3.50;1.10;;;;;;;18.05;85.74;101623.63;5094553;28;20044;-31
2022/08/02 06:23:47;;;;;;;2.92;1.50;;;;;;;18.17;85.47;101631.47;5093611;28;20035;-37
2022/08/02 06:26:27;;;;;;;4.43;1.42;;;;;;;18.30;85.25;101623.97;5083829;28;20044;-33
2022/08/02 06:28:57;;;;;;;4.97;1.50;;;;;;;18.44;84.80;101613.31;5094684;28;20044;-33
2022/08/02 06:31:25;;;;;;;5.57;1.60;;;;;;;18.57;84.53;101601.84;5093862;28;20044;-30
2022/08/02 06:33:55;;;;;;;5.68;1.60;;;;;;;18.76;84.87;101606.34;5093782;28;20044;-32
2022/08/02 06:36:30;;;;;;;3.50;1.52;;;;;;;18.99;84.19;101602.09;5093381;28;20494;-32
2022/08/02 06:39:08;;;;;;;4.30;1.77;;;;;;;19.34;83.68;101608.44;5093893;28;20052;-31
2022/08/02 06:41:41;;;;;;;3.67;1.65;;;;;;;19.68;81.25;101603.78;5091761;28;20052;-31
2022/08/02 06:44:19;;;;;;;4.40;2.00;;;;;;;19.91;80.29;101600.28;5094174;28;20059;-34
2022/08/02 06:47:07;;;;;;;4.32;1.70;;;;;;;20.18;80.54;101609.44;5082647;28;20056;-37
2022/08/02 06:49:41;;;;;;;;;;;;;;;20.39;77.70;101606.56;5093191;28;20070;-37
2022/08/02 06:52:22;;;;;;;7.17;2.10;;;;;;;20.64;78.49;101606.34;5083441;28;19919;-32
2022/08/02 06:54:55;;;;;;;5.75;2.20;;;;;;;20.91;77.91;101610.56;5093561;28;20047;-30
2022/08/02 06:57:23;;;;;;;5.40;1.80;;;;;;;21.17;76.88;101601.75;5082801;28;20048;-34
2022/08/02 06:59:51;;;;;;;6.15;2.13;;;;;;;21.37;75.80;101602.03;5093221;28;20048;-31
2022/08/02 07:02:19;;;;;;;4.38;2.13;;;;;;;21.48;74.71;101611.72;5093477;28;20089;-31
2022/08/02 07:04:48;;;;;;;3.97;1.88;;;;;;;21.48;74.43;101604.03;5093750;28;20413;-30
2022/08/02 07:07:16;;;;;;;5.45;2.08;;;;;;;21.54;74.39;101607.47;5092949;28;20493;-31
2022/08/02 07:09:44;;;;;;;7.38;2.30;;;;;;;21.64;73.85;101606.97;5093171;28;20130;-31
2022/08/02 07:12:28;;;;;;;4.30;2.13;;;;;;;21.72;73.34;101603.19;5093715;28;20040;-35
2022/08/02 07:14:57;;;;;;;3.97;2.25;;;;;;;21.95;73.54;101592.97;5092725;28;20040;-40
2022/08/02 07:17:25;;;;;;;5.40;1.83;;;;;;;22.38;73.17;101590.63;5093394;28;20036;-32
2022/08/02 07:19:54;;;;;;;5.53;2.22;;;;;;;22.80;70.72;101588.97;5093441;28;20058;-35
2022/08/02 07:22:23;;;;;;;6.32;2.55;;;;;;;22.95;68.50;101593.88;5092947;28;20060;-34
2022/08/02 07:24:51;;;;;;;6.20;2.47;;;;;;;23.05;68.17;101594.53;5093075;28;20118;-34
2022/08/02 07:27:19;;;;;;;3.92;2.03;;;;;;;23.21;68.27;101592.50;5092545;28;20162;-31
2022/08/02 07:29:47;;;;;;;4.82;2.28;;;;;;;23.38;67.47;101592.16;5093186;28;20048;-33
2022/08/02 07:32:15;;;;;;;5.13;2.55;;;;;;;23.52;65.56;101581.13;5092854;28;20515;-36
2022/08/02 07:34:43;;;;;;;4.75;2.47;;;;;;;23.66;66.61;101594.88;5092507;28;20056;-33
2022/08/02 07:37:21;;;;;;;5.72;2.70;;;;;;;23.83;66.63;101587.94;5093087;28;20059;-33
2022/08/02 07:40:10;;;;;;;5.22;2.30;;;;;;;24.14;67.55;101585.00;5072953;28;20478;-32
2022/08/02 07:42:42;;;;;;;7.75;3.08;;;;;;;24.54;67.16;101572.41;5087105;28;20416;-32
2022/08/02 07:45:11;;;;;;;5.40;3.17;;;;;;;24.74;68.38;101574.03;5092577;28;20083;-33
2022/08/02 07:47:40;;;;;;;8.93;3.70;;;;;;;24.77;70.24;101573.28;5092831;28;20240;-36
2022/08/02 07:50:10;;;;;;;6.60;3.47;;;;;;;24.85;70.89;101565.66;5092242;28;20062;-34
2022/08/02 07:52:40;;;;;;;6.57;3.63;;;;;;;25.05;71.16;101567.28;5093001;28;20056;-35
2022/08/02 07:55:09;;;;;;;6.47;3.42;;;;;;;24.99;71.76;101558.19;5092418;28;20052;-31
2022/08/02 07:57:38;;;;;;;6.28;3.47;;;;;;;25.14;71.68;101564.19;5092043;28;20126;-34
2022/08/02 08:00:14;;;;;;;6.30;3.35;;;;;;;25.22;70.02;101569.63;5092787;28;20079;-31
2022/08/02 08:02:42;;;;;;;5.22;3.35;;;;;;;25.33;72.25;101561.25;5092020;28;20188;-32
2022/08/02 08:05:11;;;;;;;5.30;3.10;;;;;;;25.51;72.33;101570.09;5092212;28;20051;-32
2022/08/02 08:07:40;;;;;;;5.78;2.70;;;;;;;25.72;71.40;101568.44;5092247;28;20449;-40
2022/08/02 08:10:09;;;;;;;4.93;2.60;;;;;;;25.99;70.21;101582.69;5091667;28;20035;-38
2022/08/02 08:12:36;;;;;;;6.30;2.70;;;;;;;26.16;69.18;101567.00;5092130;28;20401;-35
2022/08/02 08:15:05;;;;;;;3.92;2.63;;;;;;;26.38;68.47;101572.59;5092507;28;20058;-31
2022/08/02 08:17:33;;;;;;;4.75;2.50;;;;;;;26.51;68.28;101578.91;5091654;28;20040;-32
2022/08/02 08:20:02;;;;;;;6.30;3.50;;;;;;;26.65;67.86;101576.22;5092182;28;20047;-31
2022/08/02 08:22:29;;;;;;;7.15;3.15;;;;;;;26.96;66.99;101568.41;5091989;28;20054;-35
2022/08/02 08:24:59;;;;;;;6.63;4.43;;;;;;;26.96;65.02;101577.81;5091609;28;20071;-31
2022/08/02 08:27:26;;;;;;;6.68;3.67;;;;;;;26.60;67.85;101572.88;5092296;28;20036;-32
2022/08/02 08:29:54;;;;;;;5.85;3.90;;;;;;;26.57;69.49;101556.50;5091190;28;20059;-33
2022/08/02 08:32:22;;;;;;;6.13;4.38;;;;;;;26.76;69.29;101556.28;5091492;28;20411;-38
2022/08/02 08:34:50;;;;;;;8.68;5.22;;;;;;;26.67;68.71;101556.59;5091646;28;20382;-31
2022/08/02 08:37:18;;;;;;;7.82;5.20;;;;;;;26.62;69.73;101562.66;5091206;28;20126;-35
2022/08/02 08:39:46;;;;;;;8.70;4.72;;;;;;;26.31;71.08;101560.28;5091498;28;20394;-34
2022/08/02 08:42:27;;;;;;;8.77;6.68;;;;;;;25.89;73.23;101569.06;5092079;28;20048;-33
2022/08/02 08:44:55;;;;;;;9.73;6.93;;;;;;;25.45;75.89;101566.75;5091362;28;20056;-38
2022/08/02 08:47:36;;;;;;;8.45;6.05;;;;;;;25.18;77.87;101559.38;5071144;28;20067;-33
2022/08/02 08:50:06;;;;;;;8.25;5.65;;;;;;;25.15;80.33;101560.94;5088415;28;20052;-35
2022/08/02 08:52:42;;;;;;;8.65;6.07;;;;;;;25.32;80.97;101557.56;5071131;28;20052;-32
2022/08/02 08:55:11;;;;;;;11.48;7.10;;;;;;;25.48;81.07;101554.53;5087529;28;20040;-32
2022/08/02 08:57:42;;;;;;;11.70;8.52;;;;;;;25.51;81.23;101555.81;5091883;28;20036;-34
2022/08/02 09:00:12;;;;;;;10.65;7.05;;;;;;;25.29;82.75;101555.47;5090701;28;20050;-34
2022/08/02 09:02:42;;;;;;;9.30;6.50;;;;;;;25.27;83.42;101546.44;5091897;28;20143;-32
2022/08/02 09:05:11;;;;;;;8.35;5.68;;;;;;;25.39;83.89;101542.53;5091642;28;20051;-35
2022/08/02 09:07:41;;;;;;;10.85;6.45;;;;;;;25.54;83.65;101547.31;5090940;28;20052;-31
2022/08/02 09:10:34;;;;;;;9.00;5.53;;;;;;;25.63;83.21;101556.44;5091444;28;20483;-38
2022/08/02 09:13:12;;;;;;;8.48;6.07;;;;;;;25.50;83.74;101580.72;5091417;28;20484;-38
2022/08/02 09:16:02;;;;;;;10.27;7.32;;;;;;;25.53;83.71;101581.97;5091151;28;20048;-40
2022/08/02 09:18:43;;;;;;;8.40;6.30;;;;;;;25.37;84.19;101567.84;5091409;28;20048;-35
2022/08/02 09:21:12;;;;;;;9.32;7.03;;;;;;;25.24;84.56;101572.09;5090703;28;20565;-40
2022/08/02 09:23:42;;;;;;;9.32;7.00;;;;;;;25.08;84.82;101565.69;5091714;28;20144;-35
2022/08/02 09:26:12;;;;;;;9.45;6.78;;;;;;;25.03;85.72;101561.94;5091381;28;20054;-32
2022/08/02 09:28:43;;;;;;;11.20;8.15;;;;;;;24.97;85.95;101565.53;5091035;28;20397;-41
2022/08/02 09:31:13;;;;;;;12.02;9.25;;;;;;;24.86;86.26;101576.69;5091341;28;20048;-31
2022/08/02 09:33:42;;;;;;;10.82;7.78;;;;;;;24.72;87.44;101567.88;5091250;28;20040;-38
2022/08/02 09:36:11;;;;;;;11.60;7.95;;;;;;;24.55;87.71;101562.66;5091241;28;20516;-35
2022/08/02 09:38:40;;;;;;;9.95;6.88;;;;;;;24.54;88.35;101569.56;5091275;28;20048;-36
2022/08/02 09:41:22;;;;;;;11.75;9.50;;;;;;;24.41;88.75;101588.84;5090467;28;20044;-33
2022/08/02 09:43:51;;;;;;;;;;;;;;;24.32;90.68;101582.56;5091650;28;20058;-32
2022/08/02 09:46:36;;;;;;;10.20;7.68;;;;;;;24.49;90.00;101596.38;5091126;28;19942;-34
2022/08/02 09:49:07;;;;;;;12.98;8.77;;;;;;;24.53;88.80;101593.59;5091329;28;20455;-32
2022/08/02 09:51:38;;;;;;;11.57;8.57;;;;;;;24.38;89.35;101590.44;5095162;28;20079;-32
2022/08/02 09:54:07;;;;;;;10.93;8.40;;;;;;;24.22;90.21;101591.66;5095127;28;20139;-41
2022/08/02 09:56:42;;;;;;;11.07;8.48;;;;;;;24.18;91.28;101580.19;5094198;28;20094;-34
2022/08/02 09:59:12;;;;;;;12.80;7.80;;;;;;;24.10;92.06;101584.09;5095299;28;20056;-39
2022/08/02 10:01:41;;;;;;;11.43;6.78;;;;;;;24.07;92.13;101579.13;5094701;28;20059;-34
2022/08/02 10:04:26;;;;;;;12.13;8.15;;;;;;;23.99;92.33;101589.53;5094513;28;20052;-37
2022/08/02 10:06:54;;;;;;;13.68;7.03;;;;;;;23.88;92.72;101588.50;5094399;28;20512;-41
2022/08/02 10:09:22;;;;;;;9.40;6.38;;;;;;;23.74;93.62;101591.03;5094047;28;20070;-32
2022/08/02 10:11:51;;;;;;;7.90;5.57;;;;;;;23.62;94.62;101602.53;5094391;28;20047;-40
2022/08/02 10:14:22;;;;;;;12.38;6.32;;;;;;;23.46;95.91;101596.81;5094690;28;20052;-32
2022/08/02 10:16:53;;;;;;;11.75;6.43;;;;;;;23.35;96.79;101585.16;5093679;28;20054;-31
2022/08/02 10:19:21;;;;;;;11.60;6.97;;;;;;;23.27;97.46;101586.16;5094766;28;20055;-36
2022/08/02 10:22:10;;;;;;;15.10;8.82;;;;;;;23.17;98.67;101598.13;5093921;28;20625;-31
2022/08/02 10:24:40;;;;;;;9.13;6.50;;;;;;;23.12;99.27;101589.03;5093832;28;20451;-35
2022/08/02 10:27:17;;;;;;;12.77;7.70;;;;;;;23.05;100.00;101601.03;5094205;28;20486;-31
2022/08/02 10:29:48;;;;;;;11.55;7.85;;;;;;;23.00;100.00;101595.63;5094483;28;20054;-39
2022/08/02 10:32:27;;;;;;;12.73;7.10;;;;;;;22.90;100.00;101593.31;5094059;28;20478;-38
2022/08/02 10:35:00;;;;;;;13.35;8.20;;;;;;;22.87;100.00;101597.72;5094166;28;20044;-35
2022/08/02 10:37:47;;;;;;;12.57;8.40;;;;;;;22.75;100.00;101594.09;5093443;28;20797;-36
2022/08/02 10:40:22;;;;;;;13.90;9.35;;;;;;;22.63;100.00;101597.81;5093913;28;20052;-34
2022/08/02 10:42:52;;;;;;;12.70;7.18;;;;;;;22.52;100.00;101585.31;5094029;28;20052;-39
2022/08/02 10:45:22;;;;;;;11.27;7.82;;;;;;;22.50;100.00;101591.38;5093448;28;20051;-31
2022/08/02 10:47:58;;;;;;;13.20;7.67;;;;;;;22.45;100.00;101605.03;5093672;28;20052;-34
2022/08/02 10:50:52;;;;;;;14.10;7.55;;;;;;;22.36;100.00;101599.50;5093800;28;20040;-34
2022/08/02 10:53:22;;;;;;;13.40;7.75;;;;;;;22.21;100.00;101600.25;5093057;28;20139;-32
2022/08/02 10:55:51;;;;;;;13.95;8.20;;;;;;;22.16;100.00;101597.69;5092965;28;20083;-38
2022/08/02 10:58:20;;;;;;;11.77;7.10;;;;;;;22.10;100.00;101599.94;5093134;28;20060;-34
2022/08/02 11:00:54;;;;;;;9.88;6.15;;;;;;;22.11;100.00;101595.09;5093194;28;20515;-34
2022/08/02 11:03:38;;;;;;;12.73;6.13;;;;;;;22.10;100.00;101585.72;5093624;28;20448;-33
2022/08/02 11:06:08;;;;;;;10.30;5.15;;;;;;;22.09;100.00;101588.94;5093004;28;20489;-33
2022/08/02 11:09:22;;;;;;;11.77;5.28;;;;;;;22.11;100.00;101587.38;5093483;28;20040;-40
2022/08/02 11:12:01;;;;;;;9.88;4.70;;;;;;;22.12;100.00;101577.66;5091422;28;20052;-33
2022/08/02 11:14:29;;;;;;;11.90;5.47;;;;;;;22.16;100.00;101600.53;5093113;28;20048;-31
2022/08/02 11:17:15;;;;;;;13.00;5.13;;;;;;;22.18;100.00;101596.09;5093805;28;20134;-36
2022/08/02 11:20:16;;;;;;;12.23;5.38;;;;;;;22.08;100.00;101582.41;5092664;28;20170;-34
2022/08/02 11:22:46;;;;;;;10.85;4.60;;;;;;;21.99;100.00;101579.66;5073307;28;20090;-39
2022/08/02 11:25:35;;;;;;;11.88;4.90;;;;;;;22.01;100.00;101582.19;5089467;28;20056;-33
2022/08/02 11:28:24;;;;;;;8.82;3.85;;;;;;;21.96;100.00;101580.41;5072549;28;20405;-31
2022/08/02 11:31:00;;;;;;;11.52;4.35;;;;;;;21.96;100.00;101579.59;5092621;28;20071;-32
2022/08/02 11:33:35;;;;;;;8.27;4.43;;;;;;;21.91;100.00;101571.31;5092799;28;20455;-39
2022/08/02 11:36:06;;;;;;;10.27;3.95;;;;;;;21.87;100.00;101573.19;5092445;28;20074;-31
2022/08/02 11:38:34;;;;;;;7.90;3.72;;;;;;;21.84;100.00;101577.56;5092957;28;20052;-42
2022/08/02 11:41:03;;;;;;;9.88;5.28;;;;;;;21.83;100.00;101581.59;5092001;28;20036;-32